sensor_id;sensor_type;location;lat;lon;timestamp;temperature;humidity
51007;DHT22;37034;47.886;-3.904;2023-07-31T00:00:12;21.10;94.30
51007;DHT22;37034;47.886;-3.904;2023-07-31T00:02:38;21.10;94.50
51007;DHT22;37034;47.886;-3.904;2023-07-31T00:05:04;21.10;94.50
51007;DHT22;37034;47.886;-3.904;2023-07-31T00:07:30;21.10;94.60
51007;DHT22;37034;47.886;-3.904;2023-07-31T00:09:55;21.00;94.60
51007;DHT22;37034;47.886;-3.904;2023-07-31T00:12:22;21.00;94.60
51007;DHT22;37034;47.886;-3.904;2023-07-31T00:14:48;21.00;94.70
51007;DHT22;37034;47.886;-3.904;2023-07-31T00:17:13;21.00;94.70
51007;DHT22;37034;47.886;-3.904;2023-07-31T00:19:39;21.00;94.70
51007;DHT22;37034;47.886;-3.904;2023-07-31T00:22:05;21.10;94.70
51007;DHT22;37034;47.886;-3.904;2023-07-31T00:24:30;21.10;94.70
51007;DHT22;37034;47.886;-3.904;2023-07-31T00:26:56;21.10;94.80
51007;DHT22;37034;47.886;-3.904;2023-07-31T00:29:22;21.00;94.80
51007;DHT22;37034;47.886;-3.904;2023-07-31T00:31:47;21.10;94.80
51007;DHT22;37034;47.886;-3.904;2023-07-31T00:34:13;21.00;94.80
51007;DHT22;37034;47.886;-3.904;2023-07-31T00:36:38;21.00;94.80
51007;DHT22;37034;47.886;-3.904;2023-07-31T00:39:04;21.00;94.90
51007;DHT22;37034;47.886;-3.904;2023-07-31T00:41:30;21.00;95.00
51007;DHT22;37034;47.886;-3.904;2023-07-31T00:43:56;21.00;94.90
51007;DHT22;37034;47.886;-3.904;2023-07-31T00:46:21;21.00;95.00
51007;DHT22;37034;47.886;-3.904;2023-07-31T00:48:48;21.00;95.00
51007;DHT22;37034;47.886;-3.904;2023-07-31T00:51:14;21.00;95.00
51007;DHT22;37034;47.886;-3.904;2023-07-31T00:53:40;21.00;95.00
51007;DHT22;37034;47.886;-3.904;2023-07-31T00:56:06;21.10;95.00
51007;DHT22;37034;47.886;-3.904;2023-07-31T00:58:33;21.00;95.00
51007;DHT22;37034;47.886;-3.904;2023-07-31T01:00:58;21.00;95.20
51007;DHT22;37034;47.886;-3.904;2023-07-31T01:03:24;21.00;95.20
51007;DHT22;37034;47.886;-3.904;2023-07-31T01:06:19;21.00;95.30
51007;DHT22;37034;47.886;-3.904;2023-07-31T01:08:51;21.00;95.30
51007;DHT22;37034;47.886;-3.904;2023-07-31T01:11:25;21.10;95.40
51007;DHT22;37034;47.886;-3.904;2023-07-31T01:13:56;21.00;95.20
51007;DHT22;37034;47.886;-3.904;2023-07-31T01:16:22;21.00;95.30
51007;DHT22;37034;47.886;-3.904;2023-07-31T01:18:48;21.00;95.30
51007;DHT22;37034;47.886;-3.904;2023-07-31T01:26:24;21.00;95.30
51007;DHT22;37034;47.886;-3.904;2023-07-31T01:29:11;21.00;95.30
51007;DHT22;37034;47.886;-3.904;2023-07-31T01:31:39;21.00;95.40
51007;DHT22;37034;47.886;-3.904;2023-07-31T01:34:09;21.00;95.30
51007;DHT22;37034;47.886;-3.904;2023-07-31T01:36:35;21.00;95.40
51007;DHT22;37034;47.886;-3.904;2023-07-31T01:39:02;21.00;95.40
51007;DHT22;37034;47.886;-3.904;2023-07-31T01:41:28;21.00;95.40
51007;DHT22;37034;47.886;-3.904;2023-07-31T01:43:53;20.90;95.50
51007;DHT22;37034;47.886;-3.904;2023-07-31T01:46:19;20.90;95.50
51007;DHT22;37034;47.886;-3.904;2023-07-31T01:48:45;21.00;95.50
51007;DHT22;37034;47.886;-3.904;2023-07-31T01:51:10;21.00;95.50
51007;DHT22;37034;47.886;-3.904;2023-07-31T01:53:36;21.00;95.50
51007;DHT22;37034;47.886;-3.904;2023-07-31T01:56:01;21.00;95.50
51007;DHT22;37034;47.886;-3.904;2023-07-31T01:58:27;21.00;95.60
51007;DHT22;37034;47.886;-3.904;2023-07-31T02:00:53;21.00;95.60
51007;DHT22;37034;47.886;-3.904;2023-07-31T02:03:18;21.00;95.60
51007;DHT22;37034;47.886;-3.904;2023-07-31T02:05:48;20.90;95.60
51007;DHT22;37034;47.886;-3.904;2023-07-31T02:08:14;21.00;95.70
51007;DHT22;37034;47.886;-3.904;2023-07-31T02:10:40;21.00;95.70
51007;DHT22;37034;47.886;-3.904;2023-07-31T02:13:05;20.90;95.70
51007;DHT22;37034;47.886;-3.904;2023-07-31T02:15:31;20.90;95.90
51007;DHT22;37034;47.886;-3.904;2023-07-31T02:17:57;21.00;95.80
51007;DHT22;37034;47.886;-3.904;2023-07-31T02:20:23;21.00;95.80
51007;DHT22;37034;47.886;-3.904;2023-07-31T02:22:48;21.00;95.80
51007;DHT22;37034;47.886;-3.904;2023-07-31T02:25:14;20.90;95.80
51007;DHT22;37034;47.886;-3.904;2023-07-31T02:27:40;20.90;95.80
51007;DHT22;37034;47.886;-3.904;2023-07-31T02:30:06;20.80;95.80
51007;DHT22;37034;47.886;-3.904;2023-07-31T02:32:32;20.90;95.90
51007;DHT22;37034;47.886;-3.904;2023-07-31T02:34:57;20.80;95.90
51007;DHT22;37034;47.886;-3.904;2023-07-31T02:37:23;20.90;96.00
51007;DHT22;37034;47.886;-3.904;2023-07-31T02:39:49;20.90;96.00
51007;DHT22;37034;47.886;-3.904;2023-07-31T02:42:15;20.90;96.00
51007;DHT22;37034;47.886;-3.904;2023-07-31T02:44:40;20.90;96.00
51007;DHT22;37034;47.886;-3.904;2023-07-31T02:47:06;20.90;96.00
51007;DHT22;37034;47.886;-3.904;2023-07-31T02:49:32;20.90;96.00
51007;DHT22;37034;47.886;-3.904;2023-07-31T02:51:57;20.90;96.00
51007;DHT22;37034;47.886;-3.904;2023-07-31T02:54:23;20.90;96.00
51007;DHT22;37034;47.886;-3.904;2023-07-31T02:56:49;20.90;96.00
51007;DHT22;37034;47.886;-3.904;2023-07-31T02:59:14;20.90;96.10
51007;DHT22;37034;47.886;-3.904;2023-07-31T03:01:40;20.90;96.10
51007;DHT22;37034;47.886;-3.904;2023-07-31T03:04:06;20.90;96.00
51007;DHT22;37034;47.886;-3.904;2023-07-31T03:06:32;20.90;96.00
51007;DHT22;37034;47.886;-3.904;2023-07-31T03:08:58;21.00;96.20
51007;DHT22;37034;47.886;-3.904;2023-07-31T03:11:23;21.00;96.00
51007;DHT22;37034;47.886;-3.904;2023-07-31T03:13:49;20.90;96.00
51007;DHT22;37034;47.886;-3.904;2023-07-31T03:16:14;21.00;96.00
51007;DHT22;37034;47.886;-3.904;2023-07-31T03:18:40;20.90;96.00
51007;DHT22;37034;47.886;-3.904;2023-07-31T03:21:06;20.90;96.10
51007;DHT22;37034;47.886;-3.904;2023-07-31T03:23:31;20.90;96.20
51007;DHT22;37034;47.886;-3.904;2023-07-31T03:26:02;21.00;96.20
51007;DHT22;37034;47.886;-3.904;2023-07-31T03:28:31;20.90;96.20
51007;DHT22;37034;47.886;-3.904;2023-07-31T03:30:57;20.90;96.20
51007;DHT22;37034;47.886;-3.904;2023-07-31T03:33:22;20.90;96.20
51007;DHT22;37034;47.886;-3.904;2023-07-31T03:35:48;20.90;96.20
51007;DHT22;37034;47.886;-3.904;2023-07-31T03:38:14;20.90;96.30
51007;DHT22;37034;47.886;-3.904;2023-07-31T03:40:39;20.90;96.20
51007;DHT22;37034;47.886;-3.904;2023-07-31T03:43:05;20.90;96.20
51007;DHT22;37034;47.886;-3.904;2023-07-31T03:45:31;20.90;96.20
51007;DHT22;37034;47.886;-3.904;2023-07-31T03:47:57;20.90;96.20
51007;DHT22;37034;47.886;-3.904;2023-07-31T03:50:22;21.00;96.30
51007;DHT22;37034;47.886;-3.904;2023-07-31T03:52:48;21.00;96.20
51007;DHT22;37034;47.886;-3.904;2023-07-31T03:55:14;20.90;96.10
51007;DHT22;37034;47.886;-3.904;2023-07-31T03:57:39;20.90;96.20
51007;DHT22;37034;47.886;-3.904;2023-07-31T04:00:05;20.90;96.30
51007;DHT22;37034;47.886;-3.904;2023-07-31T04:02:31;20.90;96.30
51007;DHT22;37034;47.886;-3.904;2023-07-31T04:04:57;20.90;96.20
51007;DHT22;37034;47.886;-3.904;2023-07-31T04:07:22;20.90;96.30
51007;DHT22;37034;47.886;-3.904;2023-07-31T04:09:48;20.90;96.30
51007;DHT22;37034;47.886;-3.904;2023-07-31T04:12:14;20.90;96.30
51007;DHT22;37034;47.886;-3.904;2023-07-31T04:14:39;20.90;96.30
51007;DHT22;37034;47.886;-3.904;2023-07-31T04:17:05;20.90;96.40
51007;DHT22;37034;47.886;-3.904;2023-07-31T04:19:31;20.90;96.40
51007;DHT22;37034;47.886;-3.904;2023-07-31T04:21:56;20.90;96.70
51007;DHT22;37034;47.886;-3.904;2023-07-31T04:24:22;20.90;96.50
51007;DHT22;37034;47.886;-3.904;2023-07-31T04:26:53;20.80;96.60
51007;DHT22;37034;47.886;-3.904;2023-07-31T04:29:19;20.80;96.80
51007;DHT22;37034;47.886;-3.904;2023-07-31T04:31:45;20.80;96.80
51007;DHT22;37034;47.886;-3.904;2023-07-31T04:34:11;20.80;96.80
51007;DHT22;37034;47.886;-3.904;2023-07-31T04:36:37;20.90;96.80
51007;DHT22;37034;47.886;-3.904;2023-07-31T04:39:03;20.90;96.80
51007;DHT22;37034;47.886;-3.904;2023-07-31T04:41:28;20.90;96.80
51007;DHT22;37034;47.886;-3.904;2023-07-31T04:43:54;20.90;96.90
51007;DHT22;37034;47.886;-3.904;2023-07-31T04:46:19;20.90;96.90
51007;DHT22;37034;47.886;-3.904;2023-07-31T04:48:45;20.80;97.00
51007;DHT22;37034;47.886;-3.904;2023-07-31T04:51:11;20.80;97.00
51007;DHT22;37034;47.886;-3.904;2023-07-31T04:53:36;20.80;97.00
51007;DHT22;37034;47.886;-3.904;2023-07-31T04:56:02;20.80;97.00
51007;DHT22;37034;47.886;-3.904;2023-07-31T04:58:28;20.80;97.00
51007;DHT22;37034;47.886;-3.904;2023-07-31T05:00:53;20.80;97.00
51007;DHT22;37034;47.886;-3.904;2023-07-31T05:03:19;20.80;97.00
51007;DHT22;37034;47.886;-3.904;2023-07-31T05:05:45;20.80;97.10
51007;DHT22;37034;47.886;-3.904;2023-07-31T05:08:10;20.80;97.00
51007;DHT22;37034;47.886;-3.904;2023-07-31T05:10:36;20.80;97.00
51007;DHT22;37034;47.886;-3.904;2023-07-31T05:13:02;20.80;97.20
51007;DHT22;37034;47.886;-3.904;2023-07-31T05:15:28;20.80;97.20
51007;DHT22;37034;47.886;-3.904;2023-07-31T05:17:54;20.80;97.20
51007;DHT22;37034;47.886;-3.904;2023-07-31T05:20:20;20.80;97.20
51007;DHT22;37034;47.886;-3.904;2023-07-31T05:22:46;20.80;97.20
51007;DHT22;37034;47.886;-3.904;2023-07-31T05:25:12;20.80;97.30
51007;DHT22;37034;47.886;-3.904;2023-07-31T05:27:38;20.80;97.20
51007;DHT22;37034;47.886;-3.904;2023-07-31T05:30:04;20.80;97.40
51007;DHT22;37034;47.886;-3.904;2023-07-31T05:32:30;20.80;97.40
51007;DHT22;37034;47.886;-3.904;2023-07-31T05:34:56;20.80;97.40
51007;DHT22;37034;47.886;-3.904;2023-07-31T05:37:22;20.80;97.40
51007;DHT22;37034;47.886;-3.904;2023-07-31T05:39:47;20.80;97.50
51007;DHT22;37034;47.886;-3.904;2023-07-31T05:42:13;20.70;97.60
51007;DHT22;37034;47.886;-3.904;2023-07-31T05:44:38;20.70;97.50
51007;DHT22;37034;47.886;-3.904;2023-07-31T05:47:04;20.70;97.60
51007;DHT22;37034;47.886;-3.904;2023-07-31T05:49:30;20.70;97.80
51007;DHT22;37034;47.886;-3.904;2023-07-31T05:51:56;20.70;97.70
51007;DHT22;37034;47.886;-3.904;2023-07-31T05:54:21;20.70;97.60
51007;DHT22;37034;47.886;-3.904;2023-07-31T05:56:47;20.70;97.70
51007;DHT22;37034;47.886;-3.904;2023-07-31T05:59:13;20.70;97.80
51007;DHT22;37034;47.886;-3.904;2023-07-31T06:01:39;20.70;97.70
51007;DHT22;37034;47.886;-3.904;2023-07-31T06:04:05;20.70;97.80
51007;DHT22;37034;47.886;-3.904;2023-07-31T06:06:30;20.70;97.90
51007;DHT22;37034;47.886;-3.904;2023-07-31T06:08:56;20.70;97.80
51007;DHT22;37034;47.886;-3.904;2023-07-31T06:11:22;20.70;97.80
51007;DHT22;37034;47.886;-3.904;2023-07-31T06:13:48;20.70;97.90
51007;DHT22;37034;47.886;-3.904;2023-07-31T06:16:15;20.70;97.90
51007;DHT22;37034;47.886;-3.904;2023-07-31T06:18:41;20.70;97.80
51007;DHT22;37034;47.886;-3.904;2023-07-31T06:21:08;20.80;97.90
51007;DHT22;37034;47.886;-3.904;2023-07-31T06:23:34;20.80;97.80
51007;DHT22;37034;47.886;-3.904;2023-07-31T06:25:59;20.80;97.80
51007;DHT22;37034;47.886;-3.904;2023-07-31T06:28:28;20.80;97.90
51007;DHT22;37034;47.886;-3.904;2023-07-31T06:30:55;20.80;97.80
51007;DHT22;37034;47.886;-3.904;2023-07-31T06:33:20;20.80;97.80
51007;DHT22;37034;47.886;-3.904;2023-07-31T06:35:46;20.90;97.90
51007;DHT22;37034;47.886;-3.904;2023-07-31T06:38:12;20.90;97.90
51007;DHT22;37034;47.886;-3.904;2023-07-31T06:40:37;20.90;97.90
51007;DHT22;37034;47.886;-3.904;2023-07-31T06:43:03;20.90;97.90
51007;DHT22;37034;47.886;-3.904;2023-07-31T06:45:34;20.90;97.90
51007;DHT22;37034;47.886;-3.904;2023-07-31T06:48:01;20.90;98.00
51007;DHT22;37034;47.886;-3.904;2023-07-31T06:50:28;20.90;98.00
51007;DHT22;37034;47.886;-3.904;2023-07-31T06:52:53;20.90;98.00
51007;DHT22;37034;47.886;-3.904;2023-07-31T06:55:20;20.90;98.00
51007;DHT22;37034;47.886;-3.904;2023-07-31T06:57:48;21.00;98.00
51007;DHT22;37034;47.886;-3.904;2023-07-31T07:00:14;20.90;98.00
51007;DHT22;37034;47.886;-3.904;2023-07-31T07:02:40;20.90;98.10
51007;DHT22;37034;47.886;-3.904;2023-07-31T07:05:06;21.00;98.10
51007;DHT22;37034;47.886;-3.904;2023-07-31T07:07:32;21.00;98.10
51007;DHT22;37034;47.886;-3.904;2023-07-31T07:09:58;21.00;98.10
51007;DHT22;37034;47.886;-3.904;2023-07-31T07:12:29;21.00;98.00
51007;DHT22;37034;47.886;-3.904;2023-07-31T07:14:55;21.00;98.10
51007;DHT22;37034;47.886;-3.904;2023-07-31T07:17:21;21.00;98.10
51007;DHT22;37034;47.886;-3.904;2023-07-31T07:19:47;21.00;98.10
51007;DHT22;37034;47.886;-3.904;2023-07-31T07:22:13;21.00;98.10
51007;DHT22;37034;47.886;-3.904;2023-07-31T07:24:39;21.10;98.20
51007;DHT22;37034;47.886;-3.904;2023-07-31T07:27:04;21.10;98.10
51007;DHT22;37034;47.886;-3.904;2023-07-31T07:29:30;21.00;98.00
51007;DHT22;37034;47.886;-3.904;2023-07-31T07:31:56;21.00;98.20
51007;DHT22;37034;47.886;-3.904;2023-07-31T07:34:28;21.00;98.10
51007;DHT22;37034;47.886;-3.904;2023-07-31T07:36:54;21.00;98.20
51007;DHT22;37034;47.886;-3.904;2023-07-31T07:39:20;21.00;98.10
51007;DHT22;37034;47.886;-3.904;2023-07-31T07:41:46;21.00;98.20
51007;DHT22;37034;47.886;-3.904;2023-07-31T07:44:12;21.10;98.20
51007;DHT22;37034;47.886;-3.904;2023-07-31T07:46:38;21.10;98.10
51007;DHT22;37034;47.886;-3.904;2023-07-31T07:49:04;21.10;98.20
51007;DHT22;37034;47.886;-3.904;2023-07-31T07:51:30;21.10;98.20
51007;DHT22;37034;47.886;-3.904;2023-07-31T07:53:57;21.10;98.10
51007;DHT22;37034;47.886;-3.904;2023-07-31T07:56:23;21.10;98.10
51007;DHT22;37034;47.886;-3.904;2023-07-31T07:58:49;21.10;98.10
51007;DHT22;37034;47.886;-3.904;2023-07-31T08:01:16;21.10;98.20
51007;DHT22;37034;47.886;-3.904;2023-07-31T08:03:41;21.10;98.10
51007;DHT22;37034;47.886;-3.904;2023-07-31T08:06:07;21.10;98.10
51007;DHT22;37034;47.886;-3.904;2023-07-31T08:08:37;21.00;98.20
51007;DHT22;37034;47.886;-3.904;2023-07-31T08:11:03;21.00;98.20
51007;DHT22;37034;47.886;-3.904;2023-07-31T08:13:29;21.00;98.30
51007;DHT22;37034;47.886;-3.904;2023-07-31T08:15:55;21.00;98.30
51007;DHT22;37034;47.886;-3.904;2023-07-31T08:18:20;21.00;98.50
51007;DHT22;37034;47.886;-3.904;2023-07-31T08:20:46;21.00;98.50
51007;DHT22;37034;47.886;-3.904;2023-07-31T08:23:12;21.00;98.50
51007;DHT22;37034;47.886;-3.904;2023-07-31T08:25:38;21.00;98.60
51007;DHT22;37034;47.886;-3.904;2023-07-31T08:28:05;21.00;98.60
51007;DHT22;37034;47.886;-3.904;2023-07-31T08:30:31;21.00;98.70
51007;DHT22;37034;47.886;-3.904;2023-07-31T08:32:59;21.00;98.70
51007;DHT22;37034;47.886;-3.904;2023-07-31T08:35:25;21.00;98.80
51007;DHT22;37034;47.886;-3.904;2023-07-31T08:37:51;21.00;98.70
51007;DHT22;37034;47.886;-3.904;2023-07-31T08:40:17;21.10;99.10
51007;DHT22;37034;47.886;-3.904;2023-07-31T08:42:46;21.10;98.60
51007;DHT22;37034;47.886;-3.904;2023-07-31T08:45:17;21.10;98.70
51007;DHT22;37034;47.886;-3.904;2023-07-31T08:47:49;21.00;98.80
51007;DHT22;37034;47.886;-3.904;2023-07-31T08:50:16;21.10;98.80
51007;DHT22;37034;47.886;-3.904;2023-07-31T08:52:42;21.10;98.80
51007;DHT22;37034;47.886;-3.904;2023-07-31T08:55:08;21.10;98.80
51007;DHT22;37034;47.886;-3.904;2023-07-31T08:57:36;21.00;98.90
51007;DHT22;37034;47.886;-3.904;2023-07-31T09:00:08;21.00;98.80
51007;DHT22;37034;47.886;-3.904;2023-07-31T09:02:38;21.10;98.90
51007;DHT22;37034;47.886;-3.904;2023-07-31T09:05:09;21.10;98.90
51007;DHT22;37034;47.886;-3.904;2023-07-31T09:07:36;21.10;98.80
51007;DHT22;37034;47.886;-3.904;2023-07-31T09:10:03;21.10;98.80
51007;DHT22;37034;47.886;-3.904;2023-07-31T09:12:29;21.10;98.80
51007;DHT22;37034;47.886;-3.904;2023-07-31T09:14:56;21.20;98.80
51007;DHT22;37034;47.886;-3.904;2023-07-31T09:17:32;21.10;98.80
51007;DHT22;37034;47.886;-3.904;2023-07-31T09:20:16;21.00;98.90
51007;DHT22;37034;47.886;-3.904;2023-07-31T09:22:42;21.00;98.90
51007;DHT22;37034;47.886;-3.904;2023-07-31T09:30:17;21.00;98.90
51007;DHT22;37034;47.886;-3.904;2023-07-31T09:32:44;21.00;98.90
51007;DHT22;37034;47.886;-3.904;2023-07-31T09:35:30;21.10;98.90
51007;DHT22;37034;47.886;-3.904;2023-07-31T09:38:02;21.10;99.00
51007;DHT22;37034;47.886;-3.904;2023-07-31T09:40:30;21.10;98.90
51007;DHT22;37034;47.886;-3.904;2023-07-31T09:43:00;21.00;98.90
51007;DHT22;37034;47.886;-3.904;2023-07-31T09:45:27;21.00;98.90
51007;DHT22;37034;47.886;-3.904;2023-07-31T09:47:54;21.00;98.90
51007;DHT22;37034;47.886;-3.904;2023-07-31T09:50:20;21.10;99.00
51007;DHT22;37034;47.886;-3.904;2023-07-31T09:52:46;21.10;99.10
51007;DHT22;37034;47.886;-3.904;2023-07-31T09:55:12;21.10;98.90
51007;DHT22;37034;47.886;-3.904;2023-07-31T09:57:43;21.10;98.90
51007;DHT22;37034;47.886;-3.904;2023-07-31T10:00:10;21.10;98.90
51007;DHT22;37034;47.886;-3.904;2023-07-31T10:02:37;21.10;99.00
51007;DHT22;37034;47.886;-3.904;2023-07-31T10:05:04;21.10;98.90
51007;DHT22;37034;47.886;-3.904;2023-07-31T10:07:31;21.00;99.00
51007;DHT22;37034;47.886;-3.904;2023-07-31T10:10:00;21.00;98.90
51007;DHT22;37034;47.886;-3.904;2023-07-31T10:12:27;21.00;98.90
51007;DHT22;37034;47.886;-3.904;2023-07-31T10:14:55;21.00;99.00
51007;DHT22;37034;47.886;-3.904;2023-07-31T10:17:22;21.00;98.90
51007;DHT22;37034;47.886;-3.904;2023-07-31T10:19:49;21.00;98.90
51007;DHT22;37034;47.886;-3.904;2023-07-31T10:22:15;21.00;99.00
51007;DHT22;37034;47.886;-3.904;2023-07-31T10:24:45;21.00;98.90
51007;DHT22;37034;47.886;-3.904;2023-07-31T10:27:12;21.00;98.90
51007;DHT22;37034;47.886;-3.904;2023-07-31T10:29:38;21.10;98.90
51007;DHT22;37034;47.886;-3.904;2023-07-31T10:32:07;21.00;98.80
51007;DHT22;37034;47.886;-3.904;2023-07-31T10:34:36;21.00;98.80
51007;DHT22;37034;47.886;-3.904;2023-07-31T10:37:24;21.00;98.90
51007;DHT22;37034;47.886;-3.904;2023-07-31T10:42:36;21.10;98.90
51007;DHT22;37034;47.886;-3.904;2023-07-31T10:47:29;21.10;98.90
51007;DHT22;37034;47.886;-3.904;2023-07-31T10:50:12;21.10;98.90
51007;DHT22;37034;47.886;-3.904;2023-07-31T10:52:38;21.00;98.80
51007;DHT22;37034;47.886;-3.904;2023-07-31T10:55:33;21.00;98.80
51007;DHT22;37034;47.886;-3.904;2023-07-31T10:58:18;21.00;98.90
51007;DHT22;37034;47.886;-3.904;2023-07-31T11:00:44;21.00;98.90
51007;DHT22;37034;47.886;-3.904;2023-07-31T11:03:14;20.90;98.80
51007;DHT22;37034;47.886;-3.904;2023-07-31T11:05:53;20.90;98.90
51007;DHT22;37034;47.886;-3.904;2023-07-31T11:08:25;21.00;98.90
51007;DHT22;37034;47.886;-3.904;2023-07-31T11:11:08;21.00;98.90
51007;DHT22;37034;47.886;-3.904;2023-07-31T11:16:09;21.00;98.90
51007;DHT22;37034;47.886;-3.904;2023-07-31T11:18:35;21.00;98.90
51007;DHT22;37034;47.886;-3.904;2023-07-31T11:21:01;20.90;98.90
51007;DHT22;37034;47.886;-3.904;2023-07-31T11:23:26;20.90;99.00
51007;DHT22;37034;47.886;-3.904;2023-07-31T11:25:52;21.00;98.90
51007;DHT22;37034;47.886;-3.904;2023-07-31T11:28:18;21.00;98.90
51007;DHT22;37034;47.886;-3.904;2023-07-31T11:30:44;21.00;98.90
51007;DHT22;37034;47.886;-3.904;2023-07-31T11:33:12;21.10;99.00
51007;DHT22;37034;47.886;-3.904;2023-07-31T11:35:46;21.10;98.80
51007;DHT22;37034;47.886;-3.904;2023-07-31T11:38:32;21.00;98.80
51007;DHT22;37034;47.886;-3.904;2023-07-31T11:41:01;21.00;99.00
51007;DHT22;37034;47.886;-3.904;2023-07-31T11:43:31;21.00;98.90
51007;DHT22;37034;47.886;-3.904;2023-07-31T11:45:59;21.00;99.00
51007;DHT22;37034;47.886;-3.904;2023-07-31T11:48:29;21.00;99.00
51007;DHT22;37034;47.886;-3.904;2023-07-31T11:50:59;20.90;98.90
51007;DHT22;37034;47.886;-3.904;2023-07-31T11:53:30;20.90;99.00
51007;DHT22;37034;47.886;-3.904;2023-07-31T11:55:58;20.90;99.10
51007;DHT22;37034;47.886;-3.904;2023-07-31T11:58:24;20.90;99.10
51007;DHT22;37034;47.886;-3.904;2023-07-31T12:00:52;20.90;99.10
51007;DHT22;37034;47.886;-3.904;2023-07-31T12:03:18;20.80;99.10
51007;DHT22;37034;47.886;-3.904;2023-07-31T12:05:44;20.70;99.20
51007;DHT22;37034;47.886;-3.904;2023-07-31T12:08:13;20.60;99.40
51007;DHT22;37034;47.886;-3.904;2023-07-31T12:10:39;20.50;99.40
51007;DHT22;37034;47.886;-3.904;2023-07-31T12:13:24;20.50;99.80
51007;DHT22;37034;47.886;-3.904;2023-07-31T12:15:58;20.50;99.70
51007;DHT22;37034;47.886;-3.904;2023-07-31T12:18:26;20.40;99.70
51007;DHT22;37034;47.886;-3.904;2023-07-31T12:20:57;20.40;99.90
51007;DHT22;37034;47.886;-3.904;2023-07-31T12:23:29;20.40;99.90
51007;DHT22;37034;47.886;-3.904;2023-07-31T12:28:30;20.30;99.90
51007;DHT22;37034;47.886;-3.904;2023-07-31T12:31:00;20.30;99.90
51007;DHT22;37034;47.886;-3.904;2023-07-31T12:33:31;20.30;99.90
51007;DHT22;37034;47.886;-3.904;2023-07-31T12:36:00;20.20;99.90
51007;DHT22;37034;47.886;-3.904;2023-07-31T12:38:26;20.30;99.90
51007;DHT22;37034;47.886;-3.904;2023-07-31T12:40:51;20.30;99.90
51007;DHT22;37034;47.886;-3.904;2023-07-31T12:43:17;20.30;99.90
51007;DHT22;37034;47.886;-3.904;2023-07-31T12:45:43;20.40;99.90
51007;DHT22;37034;47.886;-3.904;2023-07-31T12:48:08;20.40;99.90
51007;DHT22;37034;47.886;-3.904;2023-07-31T12:50:34;20.40;99.90
51007;DHT22;37034;47.886;-3.904;2023-07-31T12:53:02;20.40;99.90
51007;DHT22;37034;47.886;-3.904;2023-07-31T12:55:32;20.40;99.90
51007;DHT22;37034;47.886;-3.904;2023-07-31T12:58:00;20.40;99.90
51007;DHT22;37034;47.886;-3.904;2023-07-31T13:00:26;20.30;99.90
51007;DHT22;37034;47.886;-3.904;2023-07-31T13:02:52;20.30;99.90
51007;DHT22;37034;47.886;-3.904;2023-07-31T13:05:17;20.30;99.90
51007;DHT22;37034;47.886;-3.904;2023-07-31T13:07:45;20.30;99.90
51007;DHT22;37034;47.886;-3.904;2023-07-31T13:10:11;20.40;99.90
51007;DHT22;37034;47.886;-3.904;2023-07-31T13:12:37;20.40;99.90
51007;DHT22;37034;47.886;-3.904;2023-07-31T13:15:04;20.40;99.90
51007;DHT22;37034;47.886;-3.904;2023-07-31T13:17:29;20.30;99.90
51007;DHT22;37034;47.886;-3.904;2023-07-31T13:19:55;20.30;99.90
51007;DHT22;37034;47.886;-3.904;2023-07-31T13:22:21;20.30;99.90
51007;DHT22;37034;47.886;-3.904;2023-07-31T13:24:46;20.30;99.90
51007;DHT22;37034;47.886;-3.904;2023-07-31T13:27:13;20.30;99.90
51007;DHT22;37034;47.886;-3.904;2023-07-31T13:29:39;20.30;99.90
51007;DHT22;37034;47.886;-3.904;2023-07-31T13:32:05;20.40;99.90
51007;DHT22;37034;47.886;-3.904;2023-07-31T13:34:30;20.50;99.90
51007;DHT22;37034;47.886;-3.904;2023-07-31T13:36:56;20.50;99.90
51007;DHT22;37034;47.886;-3.904;2023-07-31T13:39:22;20.60;99.90
51007;DHT22;37034;47.886;-3.904;2023-07-31T13:41:47;20.60;99.90
51007;DHT22;37034;47.886;-3.904;2023-07-31T13:44:14;20.60;99.90
51007;DHT22;37034;47.886;-3.904;2023-07-31T13:46:40;20.70;99.90
51007;DHT22;37034;47.886;-3.904;2023-07-31T13:49:05;20.70;99.90
51007;DHT22;37034;47.886;-3.904;2023-07-31T13:51:31;20.80;99.90
51007;DHT22;37034;47.886;-3.904;2023-07-31T13:53:57;20.80;99.90
51007;DHT22;37034;47.886;-3.904;2023-07-31T13:56:22;20.80;99.90
51007;DHT22;37034;47.886;-3.904;2023-07-31T13:58:48;20.80;99.90
51007;DHT22;37034;47.886;-3.904;2023-07-31T14:01:13;20.80;99.90
51007;DHT22;37034;47.886;-3.904;2023-07-31T14:03:39;20.90;99.90
51007;DHT22;37034;47.886;-3.904;2023-07-31T14:06:05;20.80;99.90
51007;DHT22;37034;47.886;-3.904;2023-07-31T14:08:30;20.80;99.90
51007;DHT22;37034;47.886;-3.904;2023-07-31T14:10:56;20.80;99.90
51007;DHT22;37034;47.886;-3.904;2023-07-31T14:13:22;20.80;99.90
51007;DHT22;37034;47.886;-3.904;2023-07-31T14:15:48;20.80;99.90
51007;DHT22;37034;47.886;-3.904;2023-07-31T14:18:13;20.80;99.90
51007;DHT22;37034;47.886;-3.904;2023-07-31T14:20:39;20.80;99.90
51007;DHT22;37034;47.886;-3.904;2023-07-31T14:23:05;20.80;99.90
51007;DHT22;37034;47.886;-3.904;2023-07-31T14:25:30;20.80;99.90
51007;DHT22;37034;47.886;-3.904;2023-07-31T14:27:56;20.80;99.90
51007;DHT22;37034;47.886;-3.904;2023-07-31T14:30:22;20.80;99.90
51007;DHT22;37034;47.886;-3.904;2023-07-31T14:32:48;20.80;99.90
51007;DHT22;37034;47.886;-3.904;2023-07-31T14:35:14;20.90;99.90
51007;DHT22;37034;47.886;-3.904;2023-07-31T14:37:41;20.80;99.90
51007;DHT22;37034;47.886;-3.904;2023-07-31T14:40:08;20.90;99.90
51007;DHT22;37034;47.886;-3.904;2023-07-31T14:42:34;20.80;99.90
51007;DHT22;37034;47.886;-3.904;2023-07-31T14:45:01;20.80;99.90
51007;DHT22;37034;47.886;-3.904;2023-07-31T14:47:26;20.80;99.90
51007;DHT22;37034;47.886;-3.904;2023-07-31T14:49:52;20.80;99.90
51007;DHT22;37034;47.886;-3.904;2023-07-31T14:52:18;20.80;99.90
51007;DHT22;37034;47.886;-3.904;2023-07-31T14:54:44;20.80;99.90
51007;DHT22;37034;47.886;-3.904;2023-07-31T14:57:10;20.80;99.90
51007;DHT22;37034;47.886;-3.904;2023-07-31T14:59:35;20.80;99.90
51007;DHT22;37034;47.886;-3.904;2023-07-31T15:02:01;20.80;99.90
51007;DHT22;37034;47.886;-3.904;2023-07-31T15:04:27;20.80;99.90
51007;DHT22;37034;47.886;-3.904;2023-07-31T15:06:53;20.90;99.90
51007;DHT22;37034;47.886;-3.904;2023-07-31T15:09:19;20.90;99.90
51007;DHT22;37034;47.886;-3.904;2023-07-31T15:11:44;20.90;99.90
51007;DHT22;37034;47.886;-3.904;2023-07-31T15:14:10;20.90;99.90
51007;DHT22;37034;47.886;-3.904;2023-07-31T15:16:36;20.90;99.90
51007;DHT22;37034;47.886;-3.904;2023-07-31T15:19:01;20.90;99.90
51007;DHT22;37034;47.886;-3.904;2023-07-31T15:21:27;20.90;99.90
51007;DHT22;37034;47.886;-3.904;2023-07-31T15:23:53;20.90;99.90
51007;DHT22;37034;47.886;-3.904;2023-07-31T15:26:18;20.90;99.90
51007;DHT22;37034;47.886;-3.904;2023-07-31T15:28:49;20.90;99.90
51007;DHT22;37034;47.886;-3.904;2023-07-31T15:31:15;21.00;99.90
51007;DHT22;37034;47.886;-3.904;2023-07-31T15:33:41;20.90;99.90